This is the latest recevied weather packets stored in our database for station/object WX0ABE-13. If no packets are shown the sender has not sent any weather packets the latest 10 day(s).
| Time | Temp. | Humidity | Pressure | Rain* | Wind** | Luminosity | Snow |
|---|---|---|---|---|---|---|---|
| 1787583356 | 27.78° C | 40% | 1018.9 hPa | 0 mm | - | 209 W/m² | - |
| 1787583055 | 27.22° C | 40% | 1018.9 hPa | 0 mm | - | 293 W/m² | - |
| 1787582750 | 26.11° C | 44% | 1018.7 hPa | 0 mm | - | 191 W/m² | - |
| 1787582447 | 25.56° C | 46% | 1018.9 hPa | 0 mm | - | 165 W/m² | - |
| 1787582142 | 23.89° C | 47% | 1018.7 hPa | 0 mm | - | 135 W/m² | - |
| 1787581842 | 23.33° C | 58% | 1018.9 hPa | 0 mm | - | 81 W/m² | - |
| 1787581538 | 23.33° C | 59% | 1018.9 hPa | 0 mm | - | 49 W/m² | - |
| 1787581238 | 22.78° C | 58% | 1018.9 hPa | 0 mm | - | 55 W/m² | - |
| 1787580937 | 22.78° C | 58% | 1018.9 hPa | 0 mm | - | 59 W/m² | - |
| 1787580634 | 22.22° C | 60% | 1018.5 hPa | 0 mm | - | 49 W/m² | - |
| 1787580329 | 22.22° C | 60% | 1018.6 hPa | 0 mm | - | 48 W/m² | - |
| 1787580025 | 21.67° C | 62% | 1018.4 hPa | 0 mm | - | 48 W/m² | - |
| 1787579723 | 21.67° C | 63% | 1018.6 hPa | 0 mm | - | 48 W/m² | - |
| 1787579418 | 21.11° C | 64% | 1018.4 hPa | 0 mm | - | 47 W/m² | - |
| 1787579114 | 20.56° C | 65% | 1018.4 hPa | 0 mm | - | 43 W/m² | - |
| 1787578810 | 20.56° C | 65% | 1018.5 hPa | 0 mm | - | 43 W/m² | - |
| 1787578505 | 20.56° C | 65% | 1018.1 hPa | 0 mm | - | 33 W/m² | - |
| 1787578204 | 20° C | 67% | 1018.1 hPa | 0 mm | - | 30 W/m² | - |
| 1787577900 | 19.44° C | 68% | 1018 hPa | 0 mm | - | 28 W/m² | - |
| 1787577595 | 19.44° C | 71% | 1018.2 hPa | 0 mm | - | 27 W/m² | - |
| 1787577291 | 18.89° C | 71% | 1018 hPa | 0 mm | - | 26 W/m² | - |
| 1787576987 | 18.89° C | 73% | 1018 hPa | 0 mm | - | 25 W/m² | - |
| 1787576687 | 18.89° C | 74% | 1018 hPa | 0 mm | - | 24 W/m² | - |
| 1787576383 | 18.33° C | 74% | 1017.7 hPa | 0 mm | - | 22 W/m² | - |
| 1787576079 | 18.33° C | 75% | 1017.6 hPa | 0 mm | - | 21 W/m² | - |
* Rain latest hour (hover to see other rain measurements)
** Current wind speed in m/s (hover to see current wind gust speed)